Nokomis, Canada
Current Conditions -  °F | °C
As of 11:00 AM on Wednesday 26 Nov 2014 (Local Time) from CYQR Reporting Station
Few Clouds Few Clouds  
Wind Chill: -12°   Ceiling: Unl
Heat Index:   Visibility: 15mi
Dew Point: -6°   Wind: 6mph
Humidity: 78%   Direction: 130°SE
Pressure: 30.41"   Gusts: NA
Location:  51.52°N, 105.02°W
Report Text: CYQR 261700Z 13005KT 15SM FEW070 M18/M21 A3041 RMK AC1 AC TR SLP352
Loading
Personal Weather Stations






























Interactive Weather Map New forecast layout! Learn more

10-Day Weather Forecast

Advertisements
Track Severe Weather on mobile